Ravalli County (6S5)
Hamilton, MT
Field Elevation: 3642
Lat: 45°15.05N  Long: 114°07.31W
CTAF/Unicom Freq: 122.8000
   
     For Weather-by-Phone, call 406-375-9149
Weather Advisories
8/21/2014 04:17 Z
Altimeter 29.91" Hg
Wind 190° @ 0 KT
Gusts --
Visibility 10 SM
Temperature 18° C (64° F)
Dewpoint 10° C (50° F)
Relative Humidity 61%
Density Altitude 4,800 feet
Condensation Altitude 7,500 feet
  Wind and Runways
Indicated Runway = 16
History
 
 
More Info
All DigiWx sites map
NOAA Forecast
 
Airport IQ 5010
(S59) Libby
(79S) Fort Benton
 
about DigiWx
 
FAA Disclaimer: The data displayed is for advisory purposes only and is not to be used for flight planning or operations. For official data, please call 406-375-9149 to hear the current automated AWOS voice message.
  METAR 6S5 210417Z AUTO 19000KT 10SM 18/10 A2991